createdAt,value
2019-02-10T00:00:41.394Z,98610.17
2019-02-10T00:01:50.280Z,98608.86
2019-02-10T00:02:57.999Z,98604.92
2019-02-10T00:04:06.399Z,98617.12
2019-02-10T00:05:14.399Z,98613.65
2019-02-10T00:06:24.702Z,98611.87
2019-02-10T00:07:32.073Z,98614.49
2019-02-10T00:08:39.811Z,98603.13
2019-02-10T00:09:47.904Z,98611.95
2019-02-10T00:10:55.914Z,98610.73
2019-02-10T00:12:05.029Z,98605.95
2019-02-10T00:13:32.893Z,98611.58
2019-02-10T00:14:40.771Z,98604.07
2019-02-10T00:15:48.592Z,98612.80
2019-02-10T00:16:56.973Z,98610.27
2019-02-10T00:18:05.002Z,98616.74
2019-02-10T00:19:59.344Z,98611.02
2019-02-10T00:21:08.267Z,98612.34
2019-02-10T00:22:16.785Z,98615.90
2019-02-10T00:23:25.543Z,98617.68
2019-02-10T00:24:33.539Z,98617.21
2019-02-10T00:25:41.778Z,98622.00
2019-02-10T00:26:50.081Z,98622.37
2019-02-10T00:27:58.004Z,98629.33
2019-02-10T00:29:06.071Z,98629.23
2019-02-10T00:30:13.894Z,98629.80
2019-02-10T00:31:22.043Z,98638.05
2019-02-10T00:32:30.183Z,98636.83
2019-02-10T00:33:38.101Z,98628.10
2019-02-10T00:34:46.476Z,98636.16
2019-02-10T00:35:55.184Z,98636.16
2019-02-10T00:37:03.535Z,98630.91
2019-02-10T00:38:11.809Z,98640.54
2019-02-10T00:39:19.578Z,98640.25
2019-02-10T00:40:27.437Z,98639.88
2019-02-10T00:41:35.600Z,98648.59
2019-02-10T00:42:43.715Z,98640.72
2019-02-10T00:43:52.348Z,98639.31
2019-02-10T00:45:00.317Z,98637.53
2019-02-10T00:46:09.239Z,98638.38
2019-02-10T00:47:17.137Z,98636.16
2019-02-10T00:48:25.243Z,98637.06
2019-02-10T00:49:33.449Z,98633.53
2019-02-10T00:50:41.436Z,98641.42
2019-02-10T00:51:49.959Z,98636.92
2019-02-10T00:52:57.895Z,98632.51
2019-02-10T00:54:06.131Z,98631.95
2019-02-10T00:55:14.339Z,98633.64
2019-02-10T00:56:22.275Z,98627.45
2019-02-10T00:57:30.430Z,98635.28
2019-02-10T00:58:38.300Z,98630.41
2019-02-10T00:59:46.129Z,98630.31
2019-02-10T01:00:54.072Z,98629.00
2019-02-10T01:02:02.101Z,98627.59
2019-02-10T01:03:09.976Z,98625.81
2019-02-10T01:04:18.569Z,98620.18
2019-02-10T01:05:26.300Z,98629.23
2019-02-10T01:06:41.187Z,98629.70
2019-02-10T01:07:44.898Z,98626.66
2019-02-10T01:08:52.939Z,98617.46
2019-02-10T01:10:01.143Z,98624.03
2019-02-10T01:11:09.542Z,98621.03
2019-02-10T01:12:17.613Z,98627.22
2019-02-10T01:13:25.741Z,98621.20
2019-02-10T01:14:34.108Z,98621.20
2019-02-10T01:15:42.042Z,98621.11
2019-02-10T01:16:49.696Z,98622.90
2019-02-10T01:17:57.601Z,98620.83
2019-02-10T01:19:07.825Z,98616.04
2019-02-10T01:20:15.787Z,98619.14
2019-02-10T01:21:23.682Z,98612.24
2019-02-10T01:22:31.550Z,98621.53
2019-02-10T01:23:39.632Z,98623.02
2019-02-10T01:24:47.902Z,98624.86
2019-02-10T01:25:55.815Z,98626.73
2019-02-10T01:27:04.282Z,98626.44
2019-02-10T01:28:12.376Z,98628.37
2019-02-10T01:29:20.426Z,98626.30
2019-02-10T01:30:28.783Z,98626.91
2019-02-10T01:31:36.963Z,98630.09
2019-02-10T01:32:44.986Z,98625.39
2019-02-10T01:33:53.015Z,98630.18
2019-02-10T01:35:00.910Z,98635.52
2019-02-10T01:36:09.143Z,98638.99
2019-02-10T01:37:17.248Z,98629.94
2019-02-10T01:38:25.177Z,98630.88
2019-02-10T01:39:33.083Z,98630.50
2019-02-10T01:40:41.608Z,98630.50
2019-02-10T01:41:49.495Z,98631.80
2019-02-10T01:42:57.784Z,98620.08
2019-02-10T01:44:05.538Z,98614.91
2019-02-10T01:45:14.212Z,98616.75
2019-02-10T01:46:22.025Z,98613.66
2019-02-10T01:47:29.756Z,98610.64
2019-02-10T01:48:37.533Z,98615.90
2019-02-10T01:49:45.963Z,98613.74
2019-02-10T01:50:53.729Z,98616.37
2019-02-10T01:52:02.047Z,98614.67
2019-02-10T01:53:10.281Z,98614.30
2019-02-10T01:54:18.138Z,98613.36
2019-02-10T01:55:26.071Z,98607.73
2019-02-10T01:56:33.888Z,98607.73
2019-02-10T01:57:42.155Z,98606.33
2019-02-10T01:58:50.243Z,98602.39
2019-02-10T01:59:58.244Z,98607.64
2019-02-10T02:01:06.283Z,98603.70
2019-02-10T02:02:14.104Z,98611.11
2019-02-10T02:03:22.048Z,98615.52
2019-02-10T02:04:30.066Z,98611.67
2019-02-10T02:05:37.927Z,98613.83
2019-02-10T02:06:45.711Z,98615.23
2019-02-10T02:07:53.863Z,98614.84
2019-02-10T02:09:01.953Z,98617.94
2019-02-10T02:10:13.385Z,98617.06
2019-02-10T02:11:21.096Z,98615.69
2019-02-10T02:12:29.455Z,98611.81
2019-02-10T02:13:37.191Z,98609.98
2019-02-10T02:14:45.502Z,98614.84
2019-02-10T02:15:53.310Z,98611.20
2019-02-10T02:17:01.140Z,98611.96
2019-02-10T02:18:09.189Z,98603.70
2019-02-10T02:19:17.255Z,98604.55
2019-02-10T02:20:25.450Z,98613.19
2019-02-10T02:21:33.712Z,98614.82
2019-02-10T02:22:41.660Z,98610.80
2019-02-10T02:23:49.750Z,98613.72
2019-02-10T02:24:57.549Z,98609.72
2019-02-10T02:26:05.445Z,98617.13
2019-02-10T02:27:13.506Z,98614.13
2019-02-10T02:28:22.137Z,98612.72
2019-02-10T02:29:30.059Z,98614.97
2019-02-10T02:30:37.895Z,98611.03
2019-02-10T02:31:45.643Z,98604.14
2019-02-10T02:32:53.716Z,98606.77
2019-02-10T02:34:01.774Z,98608.46
2019-02-10T02:35:09.769Z,98605.83
2019-02-10T02:36:18.358Z,98603.20
2019-02-10T02:37:26.469Z,98605.83
2019-02-10T02:38:34.766Z,98610.70
2019-02-10T02:39:42.729Z,98608.92
2019-02-10T02:40:50.588Z,98612.02
2019-02-10T02:41:58.261Z,98615.20
2019-02-10T02:43:06.219Z,98608.25
2019-02-10T02:44:14.262Z,98608.72
2019-02-10T02:45:22.409Z,98611.44
2019-02-10T02:46:30.749Z,98608.81
2019-02-10T02:47:39.392Z,98606.23
2019-02-10T02:48:46.989Z,98607.64
2019-02-10T02:49:55.105Z,98608.48
2019-02-10T02:51:03.592Z,98607.64
2019-02-10T02:52:11.776Z,98606.50
2019-02-10T02:53:19.909Z,98603.50
2019-02-10T02:54:27.535Z,98597.37
2019-02-10T02:55:35.454Z,98606.18
2019-02-10T02:56:43.581Z,98614.91
2019-02-10T02:57:51.909Z,98606.18
2019-02-10T02:59:00.357Z,98606.73
2019-02-10T03:00:10.797Z,98609.27
2019-02-10T03:01:18.847Z,98610.59
2019-02-10T03:02:27.129Z,98607.20
2019-02-10T03:03:35.401Z,98608.42
2019-02-10T03:04:45.193Z,98605.04
2019-02-10T03:05:53.279Z,98613.38
2019-02-10T03:07:02.249Z,98608.98
2019-02-10T03:08:10.338Z,98612.07
2019-02-10T03:09:18.389Z,98604.66
2019-02-10T03:10:26.521Z,98609.91
2019-02-10T03:11:35.200Z,98611.23
2019-02-10T03:12:42.888Z,98613.00
2019-02-10T03:13:51.408Z,98606.06
2019-02-10T03:14:59.795Z,98609.13
2019-02-10T03:16:07.590Z,98609.67
2019-02-10T03:17:15.913Z,98606.28
2019-02-10T03:18:24.077Z,98598.96
2019-02-10T03:19:32.830Z,98608.53
2019-02-10T03:20:40.901Z,98599.34
2019-02-10T03:21:48.700Z,98596.80
2019-02-10T03:22:56.979Z,98596.34
2019-02-10T03:24:04.768Z,98593.71
2019-02-10T03:25:13.112Z,98593.33
2019-02-10T03:26:21.271Z,98588.98
2019-02-10T03:27:29.163Z,98586.06
2019-02-10T03:28:36.774Z,98585.13
2019-02-10T03:29:44.949Z,98579.03
2019-02-10T03:30:52.946Z,98573.78
2019-02-10T03:32:00.777Z,98585.51
2019-02-10T03:33:08.774Z,98580.26
2019-02-10T03:34:16.934Z,98580.26
2019-02-10T03:35:25.215Z,98574.08
2019-02-10T03:36:33.080Z,98573.64
2019-02-10T03:37:41.103Z,98574.95
2019-02-10T03:38:49.098Z,98577.17
2019-02-10T03:39:57.225Z,98580.20
2019-02-10T03:41:04.982Z,98584.14
2019-02-10T03:42:13.182Z,98577.58
2019-02-10T03:43:21.645Z,98579.33
2019-02-10T03:44:29.564Z,98578.95
2019-02-10T03:45:37.602Z,98578.73
2019-02-10T03:46:45.705Z,98576.12
2019-02-10T03:47:53.932Z,98576.26
2019-02-10T03:49:01.796Z,98575.20
2019-02-10T03:50:11.295Z,98567.47
2019-02-10T03:51:19.228Z,98573.27
2019-02-10T03:52:27.593Z,98571.72
2019-02-10T03:53:35.739Z,98569.64
2019-02-10T03:54:43.736Z,98572.91
2019-02-10T03:55:51.781Z,98569.48
2019-02-10T03:56:59.881Z,98573.98
2019-02-10T03:58:08.209Z,98572.75
2019-02-10T03:59:16.892Z,98569.75
2019-02-10T04:00:24.614Z,98567.13
2019-02-10T04:01:32.545Z,98575.84
2019-02-10T04:02:40.628Z,98566.27
2019-02-10T04:03:49.241Z,98571.91
2019-02-10T04:04:57.304Z,98575.84
2019-02-10T04:06:05.424Z,98576.69
2019-02-10T04:07:13.944Z,98576.30
2019-02-10T04:08:22.224Z,98578.38
2019-02-10T04:09:30.095Z,98577.45
2019-02-10T04:10:38.676Z,98578.93
2019-02-10T04:11:46.209Z,98577.62
2019-02-10T04:12:53.995Z,98573.30
2019-02-10T04:14:02.781Z,98567.26
2019-02-10T04:15:11.253Z,98571.28
2019-02-10T04:16:19.849Z,98571.75
2019-02-10T04:17:29.951Z,98567.05
2019-02-10T04:18:38.548Z,98568.03
2019-02-10T04:19:46.614Z,98565.88
2019-02-10T04:20:54.694Z,98565.11
2019-02-10T04:22:02.610Z,98569.89
2019-02-10T04:23:10.511Z,98564.73
2019-02-10T04:24:18.597Z,98564.81
2019-02-10T04:25:26.378Z,98568.28
2019-02-10T04:26:34.241Z,98568.75
2019-02-10T04:27:41.923Z,98568.80
2019-02-10T04:28:50.129Z,98566.73
2019-02-10T04:29:58.167Z,98565.80
2019-02-10T04:31:06.655Z,98564.57
2019-02-10T04:32:14.641Z,98568.04
2019-02-10T04:33:22.767Z,98566.34
2019-02-10T04:34:31.069Z,98571.52
2019-02-10T04:35:39.072Z,98572.91
2019-02-10T04:36:47.214Z,98565.41
2019-02-10T04:37:55.321Z,98562.80
2019-02-10T04:39:05.052Z,98565.41
2019-02-10T04:40:12.993Z,98562.41
2019-02-10T04:41:21.255Z,98562.03
2019-02-10T04:42:29.180Z,98562.96
2019-02-10T04:43:37.017Z,98562.17
2019-02-10T04:44:44.873Z,98563.09
2019-02-10T04:45:52.771Z,98556.16
2019-02-10T04:47:00.883Z,98565.50
2019-02-10T04:48:09.249Z,98563.81
2019-02-10T04:49:17.407Z,98558.19
2019-02-10T04:50:25.476Z,98564.20
2019-02-10T04:51:33.216Z,98558.19
2019-02-10T04:52:41.226Z,98555.70
2019-02-10T04:53:49.132Z,98559.17
2019-02-10T04:54:57.378Z,98561.03
2019-02-10T04:56:18.104Z,98559.80
2019-02-10T04:57:26.253Z,98558.02
2019-02-10T04:58:34.195Z,98554.17
2019-02-10T04:59:42.289Z,98552.91
2019-02-10T05:00:50.503Z,98548.22
2019-02-10T05:01:59.225Z,98550.45
2019-02-10T05:03:07.143Z,98551.39
2019-02-10T05:04:15.282Z,98551.39
2019-02-10T05:05:23.309Z,98550.16
2019-02-10T05:06:31.270Z,98548.84
2019-02-10T05:07:39.146Z,98547.53
2019-02-10T05:08:47.400Z,98553.63
2019-02-10T05:09:55.387Z,98550.20
2019-02-10T05:11:03.815Z,98544.97
2019-02-10T05:12:11.873Z,98552.83
2019-02-10T05:13:20.318Z,98549.83
2019-02-10T05:14:28.249Z,98550.20
2019-02-10T05:15:36.653Z,98547.59
2019-02-10T05:16:45.070Z,98543.52
2019-02-10T05:17:53.161Z,98545.30
2019-02-10T05:19:01.482Z,98549.69
2019-02-10T05:20:09.907Z,98545.81
2019-02-10T05:21:17.946Z,98547.59
2019-02-10T05:22:25.793Z,98542.05
2019-02-10T05:23:33.877Z,98549.91
2019-02-10T05:24:41.967Z,98550.84
2019-02-10T05:25:50.187Z,98544.83
2019-02-10T05:26:58.038Z,98539.63
2019-02-10T05:28:05.964Z,98541.88
2019-02-10T05:29:14.066Z,98544.20
2019-02-10T05:30:23.823Z,98542.50
2019-02-10T05:31:32.245Z,98531.17
2019-02-10T05:32:40.561Z,98539.50
2019-02-10T05:33:48.864Z,98536.88
2019-02-10T05:34:56.797Z,98536.47
2019-02-10T05:36:05.077Z,98540.34
2019-02-10T05:37:13.101Z,98536.47
2019-02-10T05:38:21.382Z,98537.39
2019-02-10T05:39:29.166Z,98537.39
2019-02-10T05:40:37.126Z,98539.17
2019-02-10T05:41:45.172Z,98537.94
2019-02-10T05:42:53.577Z,98537.56
2019-02-10T05:44:01.457Z,98534.47
2019-02-10T05:45:10.193Z,98535.78
2019-02-10T05:46:18.174Z,98530.45
2019-02-10T05:47:26.475Z,98530.33
2019-02-10T05:48:34.639Z,98531.09
2019-02-10T05:49:43.445Z,98532.78
2019-02-10T05:50:51.997Z,98532.16
2019-02-10T05:51:59.875Z,98537.27
2019-02-10T05:53:07.949Z,98534.17
2019-02-10T05:54:16.275Z,98530.54
2019-02-10T05:55:24.368Z,98526.09
2019-02-10T05:56:32.274Z,98526.30
2019-02-10T05:57:40.177Z,98529.26
2019-02-10T05:58:48.428Z,98523.47
2019-02-10T05:59:57.242Z,98526.00
2019-02-10T06:01:32.333Z,98524.23
2019-02-10T06:02:40.510Z,98525.45
2019-02-10T06:03:48.696Z,98524.39
2019-02-10T06:04:56.693Z,98519.98
2019-02-10T06:06:05.428Z,98517.36
2019-02-10T06:07:16.889Z,98527.30
2019-02-10T06:08:25.079Z,98530.31
2019-02-10T06:09:32.901Z,98524.92
2019-02-10T06:10:41.114Z,98524.92
2019-02-10T06:11:49.184Z,98520.14
2019-02-10T06:12:57.150Z,98524.38
2019-02-10T06:14:05.116Z,98518.66
2019-02-10T06:15:13.074Z,98526.91
2019-02-10T06:16:21.258Z,98519.89
2019-02-10T06:17:29.045Z,98522.37
2019-02-10T06:18:37.697Z,98527.53
2019-02-10T06:19:45.629Z,98525.20
2019-02-10T06:20:53.847Z,98527.98
2019-02-10T06:22:03.471Z,98519.05
2019-02-10T06:23:11.274Z,98516.02
2019-02-10T06:24:18.909Z,98519.23
2019-02-10T06:25:27.174Z,98521.16
2019-02-10T06:26:35.345Z,98520.13
2019-02-10T06:27:43.409Z,98505.09
2019-02-10T06:28:51.764Z,98507.02
2019-02-10T06:29:59.711Z,98514.56
2019-02-10T06:31:07.884Z,98512.43
2019-02-10T06:32:15.722Z,98510.70
2019-02-10T06:33:23.666Z,98510.75
2019-02-10T06:34:32.628Z,98508.27
2019-02-10T06:35:40.527Z,98510.66
2019-02-10T06:36:48.515Z,98506.16
2019-02-10T06:37:56.395Z,98502.13
2019-02-10T06:39:05.339Z,98502.44
2019-02-10T06:40:13.935Z,98503.11
2019-02-10T06:41:21.786Z,98504.80
2019-02-10T06:42:30.090Z,98505.64
2019-02-10T06:43:38.263Z,98505.64
2019-02-10T06:44:48.942Z,98491.66
2019-02-10T06:45:57.282Z,98500.14
2019-02-10T06:47:05.350Z,98498.59
2019-02-10T06:48:13.380Z,98500.47
2019-02-10T06:49:21.845Z,98507.08
2019-02-10T06:50:29.795Z,98504.95
2019-02-10T06:51:37.972Z,98507.14
2019-02-10T06:52:45.798Z,98508.02
2019-02-10T06:53:53.998Z,98508.05
2019-02-10T06:55:01.824Z,98505.77
2019-02-10T06:56:10.064Z,98505.88
2019-02-10T06:57:18.089Z,98506.86
2019-02-10T06:58:26.315Z,98499.84
2019-02-10T06:59:38.992Z,98501.97
2019-02-10T07:00:48.716Z,98499.72
2019-02-10T07:02:01.044Z,98498.78
2019-02-10T07:03:37.186Z,98502.09
2019-02-10T07:04:45.786Z,98499.81
2019-02-10T07:05:53.641Z,98497.98
2019-02-10T07:07:01.640Z,98500.59
2019-02-10T07:08:09.634Z,98497.06
2019-02-10T07:09:17.615Z,98496.55
2019-02-10T07:10:25.755Z,98494.98
2019-02-10T07:11:33.860Z,98501.98
2019-02-10T07:12:49.768Z,98497.95
2019-02-10T07:13:59.432Z,98497.87
2019-02-10T07:15:11.103Z,98495.50
2019-02-10T07:16:57.024Z,98495.41
2019-02-10T07:19:00.209Z,98486.24
2019-02-10T07:20:42.713Z,98490.20
2019-02-10T07:21:50.954Z,98496.27
2019-02-10T07:23:02.474Z,98491.46
2019-02-10T07:24:45.860Z,98490.73
2019-02-10T07:25:53.935Z,98498.38
2019-02-10T07:27:15.294Z,98498.13
2019-02-10T07:28:28.043Z,98502.69
2019-02-10T07:29:55.908Z,98494.59
2019-02-10T07:31:03.751Z,98499.14
2019-02-10T07:32:14.741Z,98475.58
2019-02-10T07:33:59.133Z,98500.50
2019-02-10T07:35:14.354Z,98488.45
2019-02-10T07:36:29.875Z,98490.25
2019-02-10T07:37:42.801Z,98494.89
2019-02-10T07:39:04.796Z,98500.63
2019-02-10T07:41:07.727Z,98501.66
2019-02-10T07:42:38.307Z,98497.95
2019-02-10T07:44:06.075Z,98497.31
2019-02-10T07:45:24.681Z,98496.95
2019-02-10T07:46:55.499Z,98492.41
2019-02-10T07:48:22.661Z,98486.44
2019-02-10T07:50:02.584Z,98490.72
2019-02-10T07:51:39.690Z,98479.66
2019-02-10T07:53:01.491Z,98477.38
2019-02-10T07:54:42.343Z,98477.06
2019-02-10T07:56:04.102Z,98474.10
2019-02-10T07:57:37.774Z,98474.30
2019-02-10T07:59:09.066Z,98470.02
2019-02-10T08:00:40.799Z,98467.36
2019-02-10T08:02:02.518Z,98469.28
2019-02-10T08:03:27.199Z,98467.59
2019-02-10T08:04:51.885Z,98458.47
2019-02-10T08:06:36.956Z,98452.61
2019-02-10T08:08:04.801Z,98449.34
2019-02-10T08:09:38.277Z,98439.09
2019-02-10T08:11:21.265Z,98439.78
2019-02-10T08:13:04.480Z,98429.63
2019-02-10T08:14:46.998Z,98421.35
2019-02-10T08:16:14.967Z,98423.97
2019-02-10T08:17:30.408Z,98412.48
2019-02-10T08:18:51.700Z,98410.23
2019-02-10T08:20:26.785Z,98401.15
2019-02-10T08:21:45.111Z,98398.25
2019-02-10T08:23:20.005Z,98397.33
2019-02-10T08:24:47.407Z,98396.60
2019-02-10T08:26:20.967Z,98393.33
2019-02-10T08:27:54.699Z,98383.70
2019-02-10T08:29:22.225Z,98389.37
2019-02-10T08:30:49.651Z,98380.08
2019-02-10T08:32:32.431Z,98382.77
2019-02-10T08:33:51.070Z,98383.05
2019-02-10T08:35:38.471Z,98378.67
2019-02-10T08:37:09.563Z,98371.86
2019-02-10T08:38:34.238Z,98365.81
2019-02-10T08:39:52.375Z,98360.82
2019-02-10T08:41:14.441Z,98355.17
2019-02-10T08:42:56.627Z,98352.16
2019-02-10T08:44:21.114Z,98345.80
2019-02-10T08:45:51.521Z,98339.17
2019-02-10T08:47:22.308Z,98336.45
2019-02-10T08:48:38.178Z,98336.16
2019-02-10T08:50:10.468Z,98323.38
2019-02-10T08:51:47.659Z,98321.74
2019-02-10T08:53:09.500Z,98321.59
2019-02-10T08:54:17.588Z,98313.06
2019-02-10T08:55:25.865Z,98306.86
2019-02-10T08:56:33.809Z,98304.42
2019-02-10T08:57:41.777Z,98300.56
2019-02-10T08:58:49.453Z,98300.86
2019-02-10T08:59:57.635Z,98297.23
2019-02-10T09:01:05.453Z,98296.91
2019-02-10T09:02:13.623Z,98296.27
2019-02-10T09:03:21.546Z,98294.84
2019-02-10T09:04:29.468Z,98288.94
2019-02-10T09:05:37.414Z,98284.86
2019-02-10T09:06:45.404Z,98278.84
2019-02-10T09:07:53.425Z,98275.56
2019-02-10T09:09:02.605Z,98277.12
2019-02-10T09:10:13.784Z,98282.99
2019-02-10T09:11:22.161Z,98273.01
2019-02-10T09:12:30.250Z,98262.13
2019-02-10T09:13:38.497Z,98269.63
2019-02-10T09:14:46.385Z,98266.58
2019-02-10T09:15:54.447Z,98258.16
2019-02-10T09:17:02.493Z,98258.61
2019-02-10T09:18:10.355Z,98251.86
2019-02-10T09:19:18.678Z,98246.96
2019-02-10T09:20:26.798Z,98245.19
2019-02-10T09:21:34.929Z,98244.89
2019-02-10T09:22:43.602Z,98250.20
2019-02-10T09:23:51.522Z,98249.81
2019-02-10T09:24:59.747Z,98245.64
2019-02-10T09:26:07.983Z,98237.95
2019-02-10T09:27:16.150Z,98248.17
2019-02-10T09:28:24.219Z,98254.48
2019-02-10T09:29:32.522Z,98253.09
2019-02-10T09:30:40.467Z,98249.88
2019-02-10T09:31:48.912Z,98249.16
2019-02-10T09:32:56.963Z,98247.21
2019-02-10T09:34:04.974Z,98247.36
2019-02-10T09:35:12.811Z,98242.41
2019-02-10T09:36:20.863Z,98239.09
2019-02-10T09:37:29.072Z,98241.07
2019-02-10T09:38:38.082Z,98236.55
2019-02-10T09:39:45.998Z,98242.73
2019-02-10T09:40:54.594Z,98228.50
2019-02-10T09:42:02.643Z,98240.63
2019-02-10T09:43:11.012Z,98233.97
2019-02-10T09:44:18.959Z,98230.72
2019-02-10T09:45:26.641Z,98231.67
2019-02-10T09:46:34.891Z,98231.52
2019-02-10T09:47:43.056Z,98226.13
2019-02-10T09:48:51.019Z,98225.26
2019-02-10T09:49:58.911Z,98229.97
2019-02-10T09:51:06.941Z,98221.26
2019-02-10T09:52:14.959Z,98221.63
2019-02-10T09:53:22.998Z,98219.47
2019-02-10T09:54:30.725Z,98218.80
2019-02-10T09:55:38.629Z,98218.34
2019-02-10T09:56:46.671Z,98212.61
2019-02-10T09:57:54.734Z,98214.84
2019-02-10T09:59:02.730Z,98219.84
2019-02-10T10:00:15.756Z,98215.28
2019-02-10T10:01:23.880Z,98198.73
2019-02-10T10:02:31.902Z,98204.52
2019-02-10T10:03:40.179Z,98198.25
2019-02-10T10:04:48.691Z,98200.35
2019-02-10T10:05:57.015Z,98191.55
2019-02-10T10:07:04.861Z,98196.56
2019-02-10T10:08:13.195Z,98194.75
2019-02-10T10:09:21.244Z,98181.20
2019-02-10T10:10:29.098Z,98188.89
2019-02-10T10:11:37.113Z,98185.65
2019-02-10T10:12:45.287Z,98181.59
2019-02-10T10:13:53.010Z,98176.53
2019-02-10T10:15:01.164Z,98173.98
2019-02-10T10:16:09.714Z,98167.62
2019-02-10T10:17:17.569Z,98163.37
2019-02-10T10:18:25.177Z,98163.39
2019-02-10T10:19:33.080Z,98159.48
2019-02-10T10:20:41.841Z,98155.77
2019-02-10T10:21:50.084Z,98150.15
2019-02-10T10:22:58.095Z,98148.47
2019-02-10T10:24:05.827Z,98149.80
2019-02-10T10:25:13.932Z,98136.96
2019-02-10T10:26:21.813Z,98141.25
2019-02-10T10:27:30.139Z,98137.61
2019-02-10T10:28:38.211Z,98137.05
2019-02-10T10:29:46.005Z,98135.28
2019-02-10T10:30:53.862Z,98122.59
2019-02-10T10:32:02.087Z,98117.42
2019-02-10T10:33:10.269Z,98114.70
2019-02-10T10:34:18.447Z,98108.88
2019-02-10T10:35:26.732Z,98106.18
2019-02-10T10:36:34.856Z,98104.02
2019-02-10T10:37:42.896Z,98092.91
2019-02-10T10:38:50.891Z,98091.77
2019-02-10T10:39:58.903Z,98083.89
2019-02-10T10:41:06.831Z,98081.95
2019-02-10T10:42:16.533Z,98085.87
2019-02-10T10:43:24.519Z,98079.25
2019-02-10T10:44:32.379Z,98077.44
2019-02-10T10:45:40.336Z,98067.65
2019-02-10T10:46:48.205Z,98068.21
2019-02-10T10:47:56.434Z,98063.86
2019-02-10T10:49:04.088Z,98068.03
2019-02-10T10:50:14.029Z,98062.52
2019-02-10T10:51:22.042Z,98060.81
2019-02-10T10:52:29.915Z,98052.64
2019-02-10T10:53:38.022Z,98054.00
2019-02-10T10:54:46.007Z,98051.86
2019-02-10T10:55:54.224Z,98047.92
2019-02-10T10:57:03.591Z,98043.21
2019-02-10T10:58:11.529Z,98040.19
2019-02-10T10:59:19.135Z,98029.99
2019-02-10T11:00:27.145Z,98029.79
2019-02-10T11:01:35.424Z,98027.20
2019-02-10T11:02:43.332Z,98026.01
2019-02-10T11:03:51.171Z,98027.09
2019-02-10T11:04:59.412Z,98024.55
2019-02-10T11:06:07.407Z,98019.09
2019-02-10T11:07:15.469Z,98015.39
2019-02-10T11:08:23.710Z,98020.00
2019-02-10T11:09:35.641Z,98015.19
2019-02-10T11:10:41.581Z,98012.23
2019-02-10T11:11:49.747Z,98004.39
2019-02-10T11:12:58.127Z,98012.45
2019-02-10T11:14:06.331Z,98008.10
2019-02-10T11:15:18.120Z,98009.19
2019-02-10T11:16:26.275Z,98012.73
2019-02-10T11:17:34.716Z,98005.27
2019-02-10T11:18:42.663Z,98014.61
2019-02-10T11:19:51.366Z,98002.83
2019-02-10T11:21:00.262Z,97999.93
2019-02-10T11:22:08.440Z,98006.55
2019-02-10T11:23:17.144Z,98016.12
2019-02-10T11:24:28.696Z,98000.91
2019-02-10T11:25:35.281Z,97997.16
2019-02-10T11:26:44.122Z,97993.17
2019-02-10T11:27:52.433Z,97997.46
2019-02-10T11:29:01.065Z,97993.38
2019-02-10T11:30:15.296Z,97989.00
2019-02-10T11:31:23.140Z,97980.77
2019-02-10T11:32:31.612Z,97973.09
2019-02-10T11:33:39.451Z,97966.89
2019-02-10T11:34:47.670Z,97954.91
2019-02-10T11:35:56.152Z,97956.42
2019-02-10T11:38:05.902Z,97939.54
2019-02-10T11:39:13.844Z,97938.69
2019-02-10T11:40:22.494Z,97940.45
2019-02-10T11:41:30.560Z,97941.28
2019-02-10T11:42:39.350Z,97937.47
2019-02-10T11:43:47.408Z,97931.46
2019-02-10T11:44:55.965Z,97928.66
2019-02-10T11:46:04.715Z,97928.29
2019-02-10T11:47:13.015Z,97925.72
2019-02-10T11:48:21.125Z,97924.62
2019-02-10T11:49:29.721Z,97921.92
2019-02-10T11:50:38.040Z,97918.03
2019-02-10T11:51:46.171Z,97917.86
2019-02-10T11:52:54.232Z,97908.75
2019-02-10T11:54:04.060Z,97911.72
2019-02-10T11:55:12.464Z,97907.55
2019-02-10T11:56:20.360Z,97907.68
2019-02-10T11:57:28.617Z,97912.73
2019-02-10T11:58:36.824Z,97901.05
2019-02-10T11:59:45.752Z,97902.43
2019-02-10T12:00:53.806Z,97907.55
2019-02-10T12:02:02.070Z,97898.90
2019-02-10T12:03:10.687Z,97899.42
2019-02-10T12:04:19.644Z,97900.53
2019-02-10T12:05:28.050Z,97893.50
2019-02-10T12:06:37.332Z,97892.84
2019-02-10T12:07:46.375Z,97879.78
2019-02-10T12:08:54.543Z,97883.92
2019-02-10T12:10:03.441Z,97883.52
2019-02-10T12:11:11.892Z,97882.39
2019-02-10T12:12:19.688Z,97872.52
2019-02-10T12:13:27.605Z,97886.88
2019-02-10T12:14:35.897Z,97868.53
2019-02-10T12:15:44.844Z,97868.88
2019-02-10T12:16:53.390Z,97867.02
2019-02-10T12:18:01.573Z,97881.30
2019-02-10T12:19:10.426Z,97856.16
2019-02-10T12:20:18.743Z,97870.52
2019-02-10T12:21:28.667Z,97873.00
2019-02-10T12:22:36.475Z,97868.16
2019-02-10T12:23:45.176Z,97869.33
2019-02-10T12:24:55.075Z,97889.11
2019-02-10T12:26:05.608Z,97880.97
2019-02-10T12:27:13.644Z,97877.51
2019-02-10T12:28:23.055Z,97866.84
2019-02-10T12:29:32.368Z,97869.16
2019-02-10T12:30:40.783Z,97875.68
2019-02-10T12:31:49.412Z,97877.13
2019-02-10T12:32:57.999Z,97866.73
2019-02-10T12:34:08.593Z,97882.36
2019-02-10T12:35:17.711Z,97868.99
2019-02-10T12:36:27.109Z,97869.82
2019-02-10T12:37:35.736Z,97858.01
2019-02-10T12:38:44.630Z,97859.98
2019-02-10T12:39:59.678Z,97855.45
2019-02-10T12:41:04.109Z,97863.59
2019-02-10T12:42:12.083Z,97844.73
2019-02-10T12:43:20.588Z,97846.77
2019-02-10T12:44:29.414Z,97853.77
2019-02-10T12:45:37.984Z,97843.92
2019-02-10T12:46:45.766Z,97836.59
2019-02-10T12:47:53.898Z,97842.06
2019-02-10T12:49:02.249Z,97832.17
2019-02-10T12:50:16.240Z,97832.27
2019-02-10T12:51:24.660Z,97825.06
2019-02-10T12:52:34.507Z,97815.23
2019-02-10T12:53:42.893Z,97821.57
2019-02-10T12:54:51.235Z,97815.44
2019-02-10T12:55:59.633Z,97809.14
2019-02-10T12:57:08.407Z,97806.14
2019-02-10T12:58:16.503Z,97806.84
2019-02-10T12:59:24.825Z,97804.86
2019-02-10T13:00:33.231Z,97799.91
2019-02-10T13:01:41.167Z,97798.44
2019-02-10T13:02:49.412Z,97781.67
2019-02-10T13:03:59.590Z,97799.05
2019-02-10T13:05:08.534Z,97793.46
2019-02-10T13:06:16.607Z,97786.37
2019-02-10T13:07:25.066Z,97780.27
2019-02-10T13:08:33.262Z,97788.24
2019-02-10T13:09:42.312Z,97779.27
2019-02-10T13:10:50.952Z,97775.99
2019-02-10T13:11:59.940Z,97773.17
2019-02-10T13:13:08.009Z,97768.30
2019-02-10T13:14:16.513Z,97769.02
2019-02-10T13:15:24.625Z,97762.13
2019-02-10T13:16:32.457Z,97747.23
2019-02-10T13:17:41.014Z,97745.59
2019-02-10T13:18:48.900Z,97753.15
2019-02-10T13:19:58.457Z,97750.16
2019-02-10T13:21:06.556Z,97750.67
2019-02-10T13:22:14.888Z,97747.86
2019-02-10T13:23:23.597Z,97742.80
2019-02-10T13:24:32.105Z,97741.22
2019-02-10T13:25:41.121Z,97739.08
2019-02-10T13:26:49.426Z,97731.82
2019-02-10T13:27:57.522Z,97734.78
2019-02-10T13:29:06.395Z,97733.77
2019-02-10T13:30:20.920Z,97726.67
2019-02-10T13:31:29.235Z,97725.32
2019-02-10T13:32:37.639Z,97724.22
2019-02-10T13:33:45.588Z,97719.65
2019-02-10T13:34:53.774Z,97716.35
2019-02-10T13:36:02.489Z,97724.66
2019-02-10T13:37:11.116Z,97716.67
2019-02-10T13:38:19.466Z,97714.47
2019-02-10T13:39:27.672Z,97711.31
2019-02-10T13:40:36.471Z,97707.30
2019-02-10T13:41:43.078Z,97696.39
2019-02-10T13:42:51.807Z,97699.94
2019-02-10T13:44:00.355Z,97699.31
2019-02-10T13:45:10.582Z,97694.36
2019-02-10T13:46:20.326Z,97690.42
2019-02-10T13:47:28.671Z,97690.31
2019-02-10T13:48:37.547Z,97696.78